Time;durP1;ratioP1;P1;durP2;ratioP2;P2;SDS_P1;SDS_P2;PMS_P1;PMS_P2;Temp;Humidity;BMP_temperature;BMP_pressure;BME280_temperature;BME280_humidity;BME280_pressure;Samples;Min_cycle;Max_cycle;Signal;HPM_P1;HPM_P2
2023/04/28 00:01:15;;;;;;;12.82;8.40;;;6.90;99.90;;;;;;5051253;28;20520;-80
2023/04/28 00:03:40;;;;;;;11.02;9.55;;;6.80;99.90;;;;;;5050652;28;20048;-80
2023/04/28 00:06:06;;;;;;;10.48;8.55;;;6.80;99.90;;;;;;5050214;28;20041;-80
2023/04/28 00:08:32;;;;;;;9.90;8.23;;;6.80;99.90;;;;;;5050052;28;20402;-81
2023/04/28 00:10:57;;;;;;;13.23;8.10;;;6.80;99.90;;;;;;5052088;28;20049;-80
2023/04/28 00:13:23;;;;;;;9.38;8.23;;;6.80;99.90;;;;;;5049387;28;20037;-80
2023/04/28 00:15:51;;;;;;;11.80;8.80;;;6.90;99.90;;;;;;5048518;28;20116;-80
2023/04/28 00:18:17;;;;;;;10.60;8.60;;;6.80;99.90;;;;;;5047111;28;20036;-80
2023/04/28 00:20:43;;;;;;;10.52;8.27;;;6.80;99.90;;;;;;5051875;28;20051;-80
2023/04/28 00:23:08;;;;;;;12.13;8.48;;;6.80;99.90;;;;;;5040045;28;20064;-80
2023/04/28 00:25:34;;;;;;;10.73;8.15;;;6.80;99.90;;;;;;5047767;28;20148;-80
2023/04/28 00:28:00;;;;;;;12.07;8.35;;;6.80;99.90;;;;;;5050457;28;20045;-80
2023/04/28 00:30:26;;;;;;;12.05;7.68;;;6.70;99.90;;;;;;5057309;28;20041;-80
2023/04/28 00:32:51;;;;;;;9.00;8.05;;;6.70;99.90;;;;;;5052009;28;20048;-80
2023/04/28 00:35:17;;;;;;;12.32;8.07;;;6.80;99.90;;;;;;5049073;28;20044;-80
2023/04/28 00:37:43;;;;;;;8.77;7.60;;;6.80;99.90;;;;;;5045597;28;20109;-81
2023/04/28 00:40:09;;;;;;;8.00;7.18;;;6.70;99.90;;;;;;5050968;28;20036;-80
2023/04/28 00:42:35;;;;;;;12.55;9.20;;;6.70;99.90;;;;;;5045632;28;20036;-80
2023/04/28 00:45:06;;;;;;;11.82;8.63;;;6.60;99.90;;;;;;5050327;28;20045;-80
2023/04/28 00:47:36;;;;;;;13.77;8.38;;;6.60;99.90;;;;;;5046439;28;20045;-80
2023/04/28 00:50:04;;;;;;;11.95;7.63;;;6.70;99.90;;;;;;5048969;28;20034;-79
2023/04/28 00:52:30;;;;;;;11.30;8.13;;;6.60;99.90;;;;;;5048195;28;20041;-80
2023/04/28 00:54:57;;;;;;;10.15;8.13;;;6.70;99.90;;;;;;5048110;28;20044;-80
2023/04/28 00:57:22;;;;;;;8.55;7.47;;;6.70;99.90;;;;;;5046617;28;20037;-79
2023/04/28 00:59:48;;;;;;;9.65;8.15;;;6.70;99.90;;;;;;5080881;28;20039;-79
2023/04/28 01:02:16;;;;;;;9.15;7.68;;;6.70;99.90;;;;;;5044541;28;20118;-80
2023/04/28 01:04:44;;;;;;;15.40;8.05;;;6.70;99.90;;;;;;5049121;28;20065;-80
2023/04/28 01:07:10;;;;;;;10.82;9.10;;;6.70;99.90;;;;;;5044858;28;20067;-80
2023/04/28 01:09:36;;;;;;;11.85;7.93;;;6.70;99.90;;;;;;5044757;28;20052;-80
2023/04/28 01:12:01;;;;;;;12.95;8.43;;;6.70;99.90;;;;;;5048881;28;20052;-80
2023/04/28 01:14:27;;;;;;;12.57;8.07;;;6.60;99.90;;;;;;5027726;28;20073;-80
2023/04/28 01:16:53;;;;;;;9.88;7.75;;;6.70;99.90;;;;;;5048508;28;20212;-80
2023/04/28 01:19:22;;;;;;;11.63;9.48;;;6.70;99.90;;;;;;5046106;28;20048;-80
2023/04/28 01:21:49;;;;;;;12.27;8.60;;;6.70;99.90;;;;;;5047315;28;20399;-80
2023/04/28 01:24:15;;;;;;;12.57;8.63;;;6.70;99.90;;;;;;5080149;28;20174;-80
2023/04/28 01:26:40;;;;;;;15.52;8.65;;;6.70;99.90;;;;;;5044854;28;20502;-80
2023/04/28 01:29:07;;;;;;;8.77;7.88;;;6.70;99.90;;;;;;5047263;28;20045;-80
2023/04/28 01:31:32;;;;;;;11.55;8.30;;;6.70;99.90;;;;;;5066623;28;20100;-80
2023/04/28 01:33:58;;;;;;;10.70;8.73;;;6.70;99.90;;;;;;5047568;28;20041;-80
2023/04/28 01:36:26;;;;;;;11.88;8.20;;;6.60;99.90;;;;;;5051004;28;20546;-79
2023/04/28 01:38:51;;;;;;;10.35;8.13;;;6.60;99.90;;;;;;5047640;28;20048;-80
2023/04/28 01:41:17;;;;;;;11.82;8.07;;;6.60;99.90;;;;;;5061776;28;20040;-80
2023/04/28 01:43:43;;;;;;;11.48;8.35;;;6.50;99.90;;;;;;5044214;28;20056;-80
2023/04/28 01:46:09;;;;;;;10.20;7.68;;;6.50;99.90;;;;;;5061050;28;20033;-80
2023/04/28 01:48:35;;;;;;;10.55;8.77;;;6.50;99.90;;;;;;5042596;28;20052;-80
2023/04/28 01:51:00;;;;;;;11.65;8.82;;;6.50;99.90;;;;;;5077862;28;20029;-81
2023/04/28 01:53:26;;;;;;;11.80;8.70;;;6.50;99.90;;;;;;5046747;28;20132;-80
2023/04/28 01:55:52;;;;;;;12.27;9.00;;;6.60;99.90;;;;;;5053406;28;20033;-80
2023/04/28 01:58:19;;;;;;;11.77;8.77;;;6.60;99.90;;;;;;5044294;28;20037;-80
2023/04/28 02:00:45;;;;;;;12.20;8.02;;;6.60;99.90;;;;;;5049148;28;20075;-80
2023/04/28 02:03:10;;;;;;;15.88;9.80;;;6.60;99.90;;;;;;5041837;28;20132;-80
2023/04/28 02:05:36;;;;;;;10.75;8.63;;;6.70;99.90;;;;;;5062894;28;20109;-80
2023/04/28 02:08:02;;;;;;;10.15;9.13;;;6.70;99.90;;;;;;5045215;28;20041;-80
2023/04/28 02:10:27;;;;;;;13.30;9.15;;;6.70;99.90;;;;;;5046405;28;20395;-80
2023/04/28 02:12:53;;;;;;;14.88;11.60;;;6.60;99.90;;;;;;5053203;28;20120;-80
2023/04/28 02:15:18;;;;;;;12.90;9.82;;;6.60;99.90;;;;;;5051464;28;20124;-80
2023/04/28 02:17:44;;;;;;;11.18;9.63;;;6.70;99.90;;;;;;5034016;28;20586;-80
2023/04/28 02:20:10;;;;;;;13.02;9.38;;;6.70;99.90;;;;;;5043668;28;20045;-80
2023/04/28 02:22:36;;;;;;;12.35;8.50;;;6.70;99.90;;;;;;5044374;28;20041;-81
2023/04/28 02:25:02;;;;;;;11.05;9.70;;;6.70;99.90;;;;;;5046952;28;20144;-80
2023/04/28 02:27:27;;;;;;;13.18;9.68;;;6.70;99.90;;;;;;5048448;28;20044;-80
2023/04/28 02:29:53;;;;;;;13.45;10.05;;;6.60;99.90;;;;;;5044508;28;20051;-80
2023/04/28 02:32:18;;;;;;;11.13;10.02;;;6.60;99.90;;;;;;5050820;28;20044;-80
2023/04/28 02:34:44;;;;;;;12.60;9.75;;;6.60;99.90;;;;;;5046284;28;20071;-80
2023/04/28 02:37:10;;;;;;;12.68;9.23;;;6.60;99.90;;;;;;5043780;28;20034;-80
2023/04/28 02:39:36;;;;;;;13.57;11.05;;;6.60;99.90;;;;;;5030197;28;20052;-81
2023/04/28 02:42:04;;;;;;;13.13;10.38;;;6.50;99.90;;;;;;5047066;28;20079;-80
2023/04/28 02:44:30;;;;;;;14.38;10.23;;;6.50;99.90;;;;;;5052365;28;20150;-80
2023/04/28 02:46:55;;;;;;;13.80;10.13;;;6.50;99.90;;;;;;5045785;28;20112;-80
2023/04/28 02:49:21;;;;;;;14.40;10.90;;;6.40;99.90;;;;;;5046225;28;20122;-79
2023/04/28 02:51:46;;;;;;;17.50;10.23;;;6.40;99.90;;;;;;5051202;28;20072;-80
2023/04/28 02:54:12;;;;;;;11.15;10.00;;;6.40;99.90;;;;;;5047732;28;20500;-80
2023/04/28 02:56:39;;;;;;;15.40;10.45;;;6.30;99.90;;;;;;5046523;28;20045;-80
2023/04/28 02:59:05;;;;;;;13.57;10.68;;;6.30;99.90;;;;;;5047128;28;20487;-80
2023/04/28 03:01:31;;;;;;;11.52;10.18;;;6.40;99.90;;;;;;5050061;28;20049;-80
2023/04/28 03:03:56;;;;;;;12.32;10.77;;;6.40;99.90;;;;;;5046327;28;20145;-80
2023/04/28 03:06:22;;;;;;;13.00;10.55;;;6.30;99.90;;;;;;5044683;28;20081;-80
2023/04/28 03:08:47;;;;;;;12.30;9.73;;;6.40;99.90;;;;;;5049808;28;20065;-79
2023/04/28 03:11:13;;;;;;;13.85;9.88;;;6.40;99.90;;;;;;5043639;28;20379;-80
2023/04/28 03:13:38;;;;;;;13.68;10.52;;;6.40;99.90;;;;;;5045050;28;20064;-80
2023/04/28 03:16:05;;;;;;;11.82;10.32;;;6.30;99.90;;;;;;5047882;28;20037;-80
2023/04/28 03:18:30;;;;;;;14.27;10.63;;;6.40;99.90;;;;;;5047583;28;20552;-80
2023/04/28 03:20:56;;;;;;;16.30;10.98;;;6.40;99.90;;;;;;5050144;28;20139;-80
2023/04/28 03:23:21;;;;;;;12.73;9.50;;;6.40;99.90;;;;;;5046208;28;20127;-80
2023/04/28 03:25:47;;;;;;;17.52;10.57;;;6.40;99.90;;;;;;5036966;28;20048;-80
2023/04/28 03:28:12;;;;;;;13.25;10.07;;;6.40;99.90;;;;;;5046158;28;20045;-80
2023/04/28 03:30:38;;;;;;;13.25;10.80;;;6.50;99.90;;;;;;5047734;28;20044;-80
2023/04/28 03:33:03;;;;;;;11.82;10.63;;;6.40;99.90;;;;;;5046726;28;20045;-80
2023/04/28 03:35:29;;;;;;;11.52;10.35;;;6.40;99.90;;;;;;5048564;28;20039;-80
2023/04/28 03:37:54;;;;;;;14.77;10.00;;;6.40;99.90;;;;;;5051176;28;20047;-80
2023/04/28 03:40:20;;;;;;;15.05;10.63;;;6.40;99.90;;;;;;5046791;28;20048;-80
2023/04/28 03:42:46;;;;;;;13.23;10.40;;;6.40;99.90;;;;;;5049724;28;20053;-80
2023/04/28 03:45:11;;;;;;;13.98;12.13;;;6.40;99.90;;;;;;5048112;28;20335;-80
2023/04/28 03:47:37;;;;;;;12.77;11.25;;;6.40;99.90;;;;;;5049546;28;20804;-80
2023/04/28 03:50:03;;;;;;;15.60;11.82;;;6.40;99.90;;;;;;5050979;28;20487;-80
2023/04/28 03:52:28;;;;;;;13.77;12.10;;;6.30;99.90;;;;;;5054085;28;20356;-80
2023/04/28 03:54:54;;;;;;;14.55;11.73;;;6.40;99.90;;;;;;5050268;28;20041;-80
2023/04/28 03:57:19;;;;;;;13.23;11.80;;;6.40;99.90;;;;;;5048802;28;20037;-80
2023/04/28 03:59:45;;;;;;;13.05;11.43;;;6.40;99.90;;;;;;5052540;28;20046;-80
2023/04/28 04:02:10;;;;;;;14.88;12.35;;;6.30;99.90;;;;;;5050699;28;20041;-80
2023/04/28 04:04:36;;;;;;;15.00;11.60;;;6.30;99.90;;;;;;5047397;28;20092;-80
2023/04/28 04:07:01;;;;;;;16.23;12.20;;;6.30;99.90;;;;;;5050116;28;20101;-80
2023/04/28 04:09:27;;;;;;;15.50;12.73;;;6.30;99.90;;;;;;5048627;28;20129;-80
2023/04/28 04:11:53;;;;;;;16.90;12.05;;;6.40;99.90;;;;;;5048950;28;20041;-80
2023/04/28 04:14:18;;;;;;;18.20;13.02;;;6.30;99.90;;;;;;5052628;28;20123;-81
2023/04/28 04:16:46;;;;;;;16.27;12.25;;;6.40;99.90;;;;;;5045332;28;20674;-80
2023/04/28 04:19:12;;;;;;;15.52;12.75;;;6.40;99.90;;;;;;5049151;28;20046;-80
2023/04/28 04:21:37;;;;;;;19.35;13.32;;;6.40;99.90;;;;;;5050027;28;20096;-80
2023/04/28 04:24:03;;;;;;;16.20;11.20;;;6.30;99.90;;;;;;5086902;28;20072;-80
2023/04/28 04:26:28;;;;;;;17.40;13.52;;;6.40;99.90;;;;;;5048168;28;20045;-81
2023/04/28 04:28:54;;;;;;;14.45;12.80;;;6.30;99.90;;;;;;5051953;28;20132;-81
2023/04/28 04:31:21;;;;;;;16.98;13.02;;;6.40;99.90;;;;;;5052547;28;20044;-80
2023/04/28 04:33:47;;;;;;;16.13;12.65;;;6.40;99.90;;;;;;5048839;28;20044;-81
2023/04/28 04:36:16;;;;;;;17.67;13.30;;;6.40;99.90;;;;;;5044906;28;20038;-80
2023/04/28 04:38:41;;;;;;;14.20;12.68;;;6.40;99.90;;;;;;5048352;28;20079;-81
2023/04/28 04:41:07;;;;;;;14.90;12.90;;;6.40;99.90;;;;;;5054701;28;20040;-80
2023/04/28 04:43:32;;;;;;;17.98;13.45;;;6.40;99.90;;;;;;5049122;28;20049;-80
2023/04/28 04:45:58;;;;;;;17.80;13.82;;;6.40;99.90;;;;;;5041682;28;20767;-80
2023/04/28 04:48:24;;;;;;;15.13;12.43;;;6.50;99.90;;;;;;5044987;28;20041;-80
2023/04/28 04:50:49;;;;;;;19.15;13.60;;;6.50;99.90;;;;;;5053403;28;20410;-80
2023/04/28 04:53:15;;;;;;;15.70;12.65;;;6.50;99.90;;;;;;5047348;28;20170;-80
2023/04/28 04:55:41;;;;;;;17.33;12.90;;;6.50;99.90;;;;;;5048664;28;20044;-80
2023/04/28 04:58:06;;;;;;;18.65;13.15;;;6.50;99.90;;;;;;5051749;28;20044;-80
2023/04/28 05:00:32;;;;;;;15.30;13.07;;;6.50;99.90;;;;;;5048178;28;20402;-80
2023/04/28 05:02:58;;;;;;;17.83;12.80;;;6.40;99.90;;;;;;5050924;28;20556;-80
2023/04/28 05:05:23;;;;;;;14.85;12.55;;;6.50;99.90;;;;;;5055363;28;20048;-80
2023/04/28 05:07:49;;;;;;;15.80;12.00;;;6.50;99.90;;;;;;5048493;28;20176;-80
2023/04/28 05:10:15;;;;;;;15.68;12.38;;;6.50;99.90;;;;;;5045438;28;20059;-80
2023/04/28 05:12:40;;;;;;;13.93;12.18;;;6.50;99.90;;;;;;5051273;28;20055;-80
2023/04/28 05:15:06;;;;;;;15.90;13.00;;;6.50;99.90;;;;;;5051549;28;20155;-80
2023/04/28 05:17:32;;;;;;;15.40;12.25;;;6.50;99.90;;;;;;5047010;28;20033;-82
2023/04/28 05:19:58;;;;;;;19.52;14.55;;;6.60;99.90;;;;;;5052241;28;20513;-80
2023/04/28 05:22:24;;;;;;;18.67;14.75;;;6.60;99.90;;;;;;5048259;28;20167;-80
2023/04/28 05:24:50;;;;;;;16.45;13.90;;;6.60;99.90;;;;;;5046966;28;20045;-80
2023/04/28 05:27:16;;;;;;;15.45;12.13;;;6.70;99.90;;;;;;5043957;28;20048;-78
2023/04/28 05:29:41;;;;;;;13.15;11.55;;;6.70;99.90;;;;;;5049717;28;20090;-80
2023/04/28 05:32:07;;;;;;;15.27;13.25;;;6.70;99.90;;;;;;5051445;28;20040;-80
2023/04/28 05:34:32;;;;;;;17.63;12.68;;;6.80;99.90;;;;;;5041857;28;20036;-80
2023/04/28 05:36:58;;;;;;;14.32;12.00;;;6.80;99.90;;;;;;5049303;28;20063;-82
2023/04/28 05:39:23;;;;;;;17.48;11.82;;;6.80;99.90;;;;;;5052626;28;20041;-82
2023/04/28 05:41:49;;;;;;;14.48;12.00;;;6.80;99.90;;;;;;5051431;28;20037;-81
2023/04/28 05:44:15;;;;;;;15.07;11.55;;;6.80;99.90;;;;;;5051864;28;20101;-81
2023/04/28 05:46:40;;;;;;;13.65;11.60;;;6.80;99.90;;;;;;5048762;28;20040;-81
2023/04/28 05:49:06;;;;;;;14.38;12.20;;;6.90;99.90;;;;;;5050383;28;20676;-81
2023/04/28 05:51:32;;;;;;;13.57;11.95;;;6.90;99.90;;;;;;5050701;28;20407;-81
2023/04/28 05:53:58;;;;;;;13.70;11.80;;;6.90;99.90;;;;;;5067044;28;20040;-81
2023/04/28 05:56:23;;;;;;;15.73;12.25;;;6.90;99.90;;;;;;5052006;28;20037;-81
2023/04/28 05:58:49;;;;;;;17.67;12.63;;;6.90;99.90;;;;;;5054747;28;20865;-81
2023/04/28 06:01:15;;;;;;;16.10;12.25;;;7.00;99.90;;;;;;5045001;28;20116;-81
2023/04/28 06:03:41;;;;;;;21.15;11.77;;;7.00;99.90;;;;;;5049257;28;20033;-81
2023/04/28 06:06:07;;;;;;;15.18;11.95;;;7.00;99.90;;;;;;5047578;28;20094;-81
2023/04/28 06:08:33;;;;;;;16.92;11.38;;;7.10;99.90;;;;;;5047361;28;20036;-81
2023/04/28 06:10:58;;;;;;;15.18;11.02;;;7.00;99.90;;;;;;5049288;28;20102;-82
2023/04/28 06:13:24;;;;;;;16.80;11.50;;;7.10;99.90;;;;;;5039346;28;20040;-81
2023/04/28 06:15:50;;;;;;;14.20;10.60;;;7.10;99.90;;;;;;5043383;28;20045;-81
2023/04/28 06:18:15;;;;;;;16.67;12.45;;;7.10;99.90;;;;;;5043372;28;20048;-81
2023/04/28 06:20:41;;;;;;;13.60;11.25;;;7.10;99.90;;;;;;5047330;28;20522;-81
2023/04/28 06:23:08;;;;;;;13.82;11.73;;;7.20;99.90;;;;;;5041609;28;20040;-81
2023/04/28 06:25:35;;;;;;;12.98;11.15;;;7.10;99.90;;;;;;5057205;28;20052;-82
2023/04/28 06:28:01;;;;;;;15.13;11.48;;;7.20;99.90;;;;;;5048942;28;20052;-81
2023/04/28 06:30:26;;;;;;;17.75;11.60;;;7.20;99.90;;;;;;5054194;28;20099;-81
2023/04/28 06:32:52;;;;;;;14.27;11.15;;;7.20;99.90;;;;;;5055345;28;20045;-81
2023/04/28 06:35:17;;;;;;;13.95;10.90;;;7.30;99.90;;;;;;5048291;28;20034;-82
2023/04/28 06:37:43;;;;;;;12.10;10.80;;;7.30;99.90;;;;;;5050086;28;20144;-81
2023/04/28 06:40:09;;;;;;;15.07;10.60;;;7.30;99.90;;;;;;5067990;28;20049;-81
2023/04/28 06:42:35;;;;;;;12.38;9.95;;;7.20;99.90;;;;;;5051959;28;20037;-82
2023/04/28 06:45:01;;;;;;;12.70;11.07;;;7.30;99.90;;;;;;5067607;28;20029;-82
2023/04/28 06:47:27;;;;;;;14.95;10.60;;;7.40;99.90;;;;;;5048451;28;20064;-82
2023/04/28 06:49:52;;;;;;;16.10;9.68;;;7.40;99.90;;;;;;5053007;28;20045;-82
2023/04/28 06:52:20;;;;;;;13.35;9.85;;;7.40;99.90;;;;;;5050311;28;20037;-82
2023/04/28 06:54:46;;;;;;;14.23;11.52;;;7.40;99.90;;;;;;5051417;28;20056;-82
2023/04/28 06:57:11;;;;;;;11.55;9.98;;;7.40;99.90;;;;;;5043488;28;20034;-83
2023/04/28 06:59:37;;;;;;;13.70;11.43;;;7.50;99.90;;;;;;5065383;28;20059;-80
2023/04/28 07:02:02;;;;;;;13.75;10.50;;;7.60;99.90;;;;;;5058814;28;20045;-81
2023/04/28 07:04:28;;;;;;;17.25;11.32;;;7.60;99.90;;;;;;5050973;28;20033;-80
2023/04/28 07:06:54;;;;;;;18.58;10.32;;;7.70;99.90;;;;;;5048089;28;20099;-80
2023/04/28 07:09:20;;;;;;;12.98;9.93;;;7.70;99.90;;;;;;5045649;28;20041;-78
2023/04/28 07:11:46;;;;;;;15.95;10.25;;;7.80;99.90;;;;;;5048746;28;20041;-79
2023/04/28 07:14:11;;;;;;;14.88;9.77;;;7.80;99.90;;;;;;5040212;28;20045;-79
2023/04/28 07:16:37;;;;;;;12.18;9.35;;;7.90;99.90;;;;;;5043452;28;20041;-79
2023/04/28 07:19:02;;;;;;;10.98;9.27;;;8.00;99.90;;;;;;5044079;28;20033;-79
2023/04/28 07:21:28;;;;;;;10.23;9.27;;;8.00;99.90;;;;;;5038392;28;20053;-79
2023/04/28 07:23:56;;;;;;;14.30;9.70;;;8.00;99.90;;;;;;5042585;28;20041;-79
2023/04/28 07:26:22;;;;;;;13.45;10.52;;;8.00;99.90;;;;;;5042533;28;20036;-79
2023/04/28 07:28:48;;;;;;;10.35;9.13;;;8.00;99.90;;;;;;5043521;28;20511;-79
2023/04/28 07:31:14;;;;;;;12.48;9.07;;;8.00;99.90;;;;;;5039710;28;20084;-79
2023/04/28 07:33:40;;;;;;;10.75;9.68;;;8.10;99.90;;;;;;5041180;28;20121;-78
2023/04/28 07:36:06;;;;;;;11.23;8.88;;;8.10;99.90;;;;;;5042591;28;20094;-79
2023/04/28 07:38:33;;;;;;;13.00;9.60;;;8.10;99.90;;;;;;5039054;28;20480;-79
2023/04/28 07:40:59;;;;;;;12.40;8.88;;;8.10;99.90;;;;;;5039070;28;20073;-79
2023/04/28 07:43:25;;;;;;;15.55;8.65;;;8.20;99.90;;;;;;5041793;28;20065;-79
2023/04/28 07:45:51;;;;;;;13.68;9.20;;;8.30;99.90;;;;;;5039278;28;20455;-82
2023/04/28 07:48:16;;;;;;;14.38;10.00;;;8.30;99.90;;;;;;5048690;28;20087;-82
2023/04/28 07:50:42;;;;;;;10.38;8.43;;;8.40;99.90;;;;;;5044219;28;20041;-79
2023/04/28 07:53:08;;;;;;;9.05;8.15;;;8.60;99.90;;;;;;5045934;28;20395;-79
2023/04/28 07:55:33;;;;;;;12.20;8.05;;;8.80;99.90;;;;;;5047309;28;20045;-81
2023/04/28 07:57:59;;;;;;;11.80;8.32;;;8.90;99.90;;;;;;5051529;28;20513;-82
2023/04/28 08:00:25;;;;;;;10.27;8.30;;;9.00;99.90;;;;;;5044950;28;20445;-80
2023/04/28 08:02:50;;;;;;;12.25;7.32;;;9.00;99.90;;;;;;5047866;28;20045;-80
2023/04/28 08:05:16;;;;;;;11.88;7.40;;;9.10;99.90;;;;;;5044223;28;20056;-79
2023/04/28 08:07:42;;;;;;;14.35;8.10;;;9.20;99.90;;;;;;5042803;28;20036;-79
2023/04/28 08:10:11;;;;;;;9.43;7.30;;;9.30;99.90;;;;;;5050478;28;20119;-80
2023/04/28 08:12:37;;;;;;;10.90;7.18;;;9.30;99.90;;;;;;5061888;28;20041;-80
2023/04/28 08:15:03;;;;;;;7.82;6.57;;;9.30;99.90;;;;;;5047450;28;20049;-80
2023/04/28 08:17:29;;;;;;;10.38;7.28;;;9.40;99.90;;;;;;5044179;28;20527;-78
2023/04/28 08:19:54;;;;;;;10.90;7.95;;;9.40;99.90;;;;;;5055480;28;20059;-78
2023/04/28 08:22:20;;;;;;;14.43;9.30;;;9.40;99.90;;;;;;5044378;28;20734;-78
2023/04/28 08:24:45;;;;;;;12.10;7.15;;;9.40;99.90;;;;;;5046052;28;20080;-79
2023/04/28 08:27:11;;;;;;;11.93;7.93;;;9.40;99.90;;;;;;5026833;28;20045;-79
2023/04/28 08:29:37;;;;;;;9.57;8.20;;;9.30;99.90;;;;;;5045260;28;20041;-80
2023/04/28 08:32:05;;;;;;;11.77;7.85;;;9.40;99.90;;;;;;5043909;28;20060;-79
2023/04/28 08:34:33;;;;;;;11.30;7.93;;;9.40;99.90;;;;;;5062465;28;20045;-80
2023/04/28 08:36:59;;;;;;;21.05;14.98;;;9.40;99.90;;;;;;5045112;28;20036;-82
2023/04/28 08:39:25;;;;;;;21.27;13.43;;;9.30;99.90;;;;;;5044097;28;20439;-82
2023/04/28 08:41:52;;;;;;;14.38;12.30;;;9.30;99.90;;;;;;5047235;28;20104;-81
2023/04/28 08:44:18;;;;;;;14.43;12.95;;;9.20;99.90;;;;;;5043314;28;20442;-79
2023/04/28 08:46:45;;;;;;;14.40;10.07;;;9.30;99.90;;;;;;5042112;28;20043;-80
2023/04/28 08:49:15;;;;;;;13.85;9.68;;;9.40;99.90;;;;;;5046934;28;20509;-79
2023/04/28 08:51:56;;;;;;;12.27;8.45;;;9.40;99.90;;;;;;5045223;28;20033;-79
2023/04/28 08:54:23;;;;;;;10.65;8.00;;;9.50;99.90;;;;;;5048627;28;20041;-80
2023/04/28 08:56:50;;;;;;;11.60;7.97;;;9.50;99.90;;;;;;5046114;28;20080;-80
2023/04/28 08:59:17;;;;;;;11.57;8.38;;;9.50;99.90;;;;;;5042864;28;20048;-77
2023/04/28 09:01:42;;;;;;;9.80;8.02;;;9.70;99.90;;;;;;5043606;28;20448;-78
2023/04/28 09:04:09;;;;;;;9.70;8.27;;;9.70;99.90;;;;;;5039213;28;20072;-78
2023/04/28 09:06:36;;;;;;;9.85;8.32;;;9.80;99.90;;;;;;5057475;28;20041;-78
2023/04/28 09:09:24;;;;;;;11.00;9.00;;;9.70;99.90;;;;;;5058169;28;20045;-78
2023/04/28 09:11:54;;;;;;;8.40;7.60;;;9.80;99.90;;;;;;5043525;28;20049;-78
2023/04/28 09:14:22;;;;;;;9.68;8.70;;;9.80;99.90;;;;;;5044739;28;20072;-77
2023/04/28 09:16:48;;;;;;;11.13;8.88;;;9.80;99.90;;;;;;5041321;28;20048;-78
2023/04/28 09:19:16;;;;;;;15.95;8.38;;;9.80;99.90;;;;;;5037316;28;20549;-77
2023/04/28 09:21:50;;;;;;;14.80;8.80;;;9.90;99.90;;;;;;5041736;28;20802;-77
2023/04/28 09:24:35;;;;;;;8.98;7.93;;;10.00;99.90;;;;;;5055922;28;20045;-77
2023/04/28 09:27:03;;;;;;;10.23;8.30;;;10.20;99.90;;;;;;5058406;28;20061;-78
2023/04/28 09:29:29;;;;;;;9.23;8.18;;;10.20;99.90;;;;;;5042844;28;20053;-77
2023/04/28 09:32:15;;;;;;;8.93;8.13;;;10.30;99.90;;;;;;5030182;28;20080;-78
2023/04/28 09:34:45;;;;;;;13.50;7.73;;;10.30;99.90;;;;;;5041151;28;20120;-78
2023/04/28 09:37:19;;;;;;;10.50;7.72;;;10.40;99.90;;;;;;5042531;28;20299;-78
2023/04/28 09:39:48;;;;;;;10.98;7.82;;;10.50;99.90;;;;;;5043393;28;20080;-79
2023/04/28 09:42:35;;;;;;;9.52;7.20;;;10.60;99.90;;;;;;5075767;28;20044;-79
2023/04/28 09:45:09;;;;;;;9.93;7.45;;;11.00;99.90;;;;;;5043696;28;20053;-76
2023/04/28 09:47:40;;;;;;;9.35;8.02;;;11.00;99.90;;;;;;5043736;28;20041;-80
2023/04/28 09:50:08;;;;;;;10.45;8.20;;;11.10;99.90;;;;;;5048441;28;20095;-79
2023/04/28 09:52:34;;;;;;;12.02;7.65;;;11.30;99.90;;;;;;5053602;28;20091;-81
2023/04/28 09:55:05;;;;;;;9.35;8.15;;;11.60;99.90;;;;;;5056881;28;20097;-79
2023/04/28 09:57:33;;;;;;;10.70;7.93;;;11.90;99.90;;;;;;5047361;28;20060;-82
2023/04/28 09:59:59;;;;;;;8.57;7.78;;;12.30;99.90;;;;;;5050634;28;20541;-82
2023/04/28 10:02:25;;;;;;;9.25;7.05;;;12.20;99.90;;;;;;5052728;28;20100;-81
2023/04/28 10:04:51;;;;;;;9.30;7.20;;;12.30;99.90;;;;;;5046499;28;20376;-79
2023/04/28 10:07:19;;;;;;;9.73;7.40;;;12.60;99.90;;;;;;5048001;28;20048;-79
2023/04/28 10:09:50;;;;;;;8.93;8.00;;;12.60;99.90;;;;;;5045422;28;20045;-79
2023/04/28 10:12:19;;;;;;;10.00;7.78;;;12.50;99.90;;;;;;5055359;28;20082;-80
2023/04/28 10:14:46;;;;;;;9.05;7.15;;;12.40;99.90;;;;;;5050782;28;20048;-79
2023/04/28 10:17:16;;;;;;;9.27;7.70;;;12.30;99.90;;;;;;5045953;28;20770;-79
2023/04/28 10:19:46;;;;;;;8.80;7.90;;;12.20;99.90;;;;;;5046639;28;20457;-80
2023/04/28 10:22:27;;;;;;;9.73;8.73;;;12.30;99.90;;;;;;5051471;28;20099;-80
2023/04/28 10:25:10;;;;;;;13.55;8.38;;;12.20;99.90;;;;;;5030794;28;20710;-80
2023/04/28 10:27:39;;;;;;;8.93;7.80;;;12.30;99.90;;;;;;5049644;28;20049;-79
2023/04/28 10:30:18;;;;;;;12.30;7.68;;;12.40;99.90;;;;;;5044016;28;20477;-80
2023/04/28 10:32:47;;;;;;;9.63;7.53;;;12.30;99.90;;;;;;5040042;28;20045;-80
2023/04/28 10:35:31;;;;;;;11.40;7.38;;;12.40;99.90;;;;;;5051583;28;20040;-81
2023/04/28 10:38:17;;;;;;;11.63;7.90;;;12.40;99.90;;;;;;5049051;28;20065;-80
2023/04/28 10:40:44;;;;;;;12.00;7.65;;;12.50;99.90;;;;;;5049125;28;20135;-81
2023/04/28 10:43:12;;;;;;;12.75;7.53;;;12.50;99.90;;;;;;5051167;28;20059;-81
2023/04/28 10:45:54;;;;;;;11.20;6.97;;;12.70;99.90;;;;;;5036449;28;20140;-80
2023/04/28 10:48:21;;;;;;;11.48;7.78;;;13.00;99.90;;;;;;5047867;28;20045;-81
2023/04/28 10:51:02;;;;;;;9.10;7.80;;;13.40;99.90;;;;;;5050594;28;20099;-80
2023/04/28 10:53:43;;;;;;;12.40;7.63;;;13.50;99.90;;;;;;5068504;28;20047;-80
2023/04/28 10:56:13;;;;;;;10.70;7.57;;;13.60;99.90;;;;;;5047588;28;20093;-80
2023/04/28 10:58:44;;;;;;;9.05;7.35;;;13.70;99.90;;;;;;5049468;28;20052;-80
2023/04/28 11:01:33;;;;;;;11.70;6.72;;;13.60;99.90;;;;;;5054311;28;20206;-79
2023/04/28 11:04:15;;;;;;;8.25;7.25;;;13.70;99.90;;;;;;5046713;28;20105;-79
2023/04/28 11:07:12;;;;;;;7.63;6.78;;;13.70;99.90;;;;;;5039714;28;20059;-79
2023/04/28 11:09:38;;;;;;;8.00;7.10;;;13.70;99.90;;;;;;5047182;28;20069;-78
2023/04/28 11:12:05;;;;;;;7.72;6.70;;;13.70;99.90;;;;;;5048169;28;20120;-78
2023/04/28 11:14:35;;;;;;;7.00;6.30;;;13.70;99.90;;;;;;5057643;28;20052;-80
2023/04/28 11:17:03;;;;;;;10.32;6.90;;;13.60;99.90;;;;;;5047817;28;20063;-80
2023/04/28 11:19:34;;;;;;;9.80;7.35;;;13.60;99.90;;;;;;5049917;28;20049;-80
2023/04/28 11:22:02;;;;;;;10.70;7.15;;;13.50;99.90;;;;;;5069354;28;20061;-80
2023/04/28 11:24:29;;;;;;;7.90;7.07;;;13.50;99.90;;;;;;5051995;28;20121;-80
2023/04/28 11:26:55;;;;;;;9.20;7.10;;;13.50;99.90;;;;;;5051994;28;20049;-81
2023/04/28 11:29:41;;;;;;;12.25;7.03;;;13.50;99.90;;;;;;5047771;28;20049;-79
2023/04/28 11:32:09;;;;;;;8.43;7.13;;;13.40;99.90;;;;;;5042076;28;20072;-78
2023/04/28 11:34:36;;;;;;;8.68;7.25;;;13.40;99.90;;;;;;5035806;28;20041;-80
2023/04/28 11:37:02;;;;;;;11.30;7.93;;;13.30;99.90;;;;;;5034307;28;20040;-79
2023/04/28 11:39:30;;;;;;;9.68;7.10;;;13.30;99.90;;;;;;5034333;28;20037;-78
2023/04/28 11:41:57;;;;;;;9.50;6.97;;;13.40;99.90;;;;;;5039143;28;20040;-78
2023/04/28 11:44:25;;;;;;;10.63;7.60;;;13.50;99.90;;;;;;5035754;28;20041;-79
2023/04/28 11:46:59;;;;;;;8.63;7.55;;;13.60;99.90;;;;;;5037137;28;20132;-79
2023/04/28 11:49:29;;;;;;;10.95;6.90;;;13.60;99.90;;;;;;5034845;28;20090;-80
2023/04/28 11:51:56;;;;;;;10.40;7.40;;;13.60;99.90;;;;;;5021972;28;20044;-80
2023/04/28 11:54:26;;;;;;;10.73;6.43;;;13.60;99.90;;;;;;5028941;28;20044;-80
2023/04/28 11:56:53;;;;;;;8.27;6.50;;;13.70;99.90;;;;;;5049160;28;20190;-80
2023/04/28 11:59:30;;;;;;;6.65;5.90;;;13.70;99.90;;;;;;5048795;28;20496;-79
2023/04/28 12:02:05;;;;;;;7.95;6.38;;;13.80;99.90;;;;;;5050668;28;20087;-80
2023/04/28 12:04:34;;;;;;;8.20;7.22;;;13.70;99.90;;;;;;5079334;28;20092;-81
2023/04/28 12:07:02;;;;;;;8.38;6.82;;;13.70;99.90;;;;;;5047625;28;20433;-80
2023/04/28 12:09:28;;;;;;;9.23;7.05;;;13.70;99.90;;;;;;5046088;28;20049;-80
2023/04/28 12:12:01;;;;;;;9.65;6.47;;;13.70;99.90;;;;;;5047695;28;20041;-79
2023/04/28 12:14:26;;;;;;;10.15;7.32;;;13.80;99.90;;;;;;5061878;28;20048;-82
2023/04/28 12:16:52;;;;;;;11.07;6.60;;;13.80;99.90;;;;;;5047053;28;20041;-80
2023/04/28 12:19:19;;;;;;;8.10;6.70;;;13.70;99.90;;;;;;5045953;28;20499;-79
2023/04/28 12:22:02;;;;;;;8.38;7.07;;;13.80;99.90;;;;;;5034364;28;20059;-80
2023/04/28 12:24:28;;;;;;;11.15;6.95;;;13.80;99.90;;;;;;5044426;28;20033;-79
2023/04/28 12:26:54;;;;;;;7.65;6.30;;;13.70;99.90;;;;;;5044456;28;20056;-79
2023/04/28 12:29:39;;;;;;;8.00;7.18;;;13.80;99.90;;;;;;5059532;28;20065;-79
2023/04/28 12:32:07;;;;;;;7.93;7.13;;;13.70;99.90;;;;;;5061053;28;20528;-80
2023/04/28 12:34:32;;;;;;;8.68;7.00;;;13.80;99.90;;;;;;5043302;28;20110;-79
2023/04/28 12:37:07;;;;;;;7.80;7.00;;;13.80;99.90;;;;;;5042930;28;20037;-80
2023/04/28 12:39:33;;;;;;;10.45;6.82;;;13.80;99.90;;;;;;5046982;28;20069;-80
2023/04/28 12:42:01;;;;;;;10.43;6.82;;;13.90;99.90;;;;;;5036857;28;20036;-78
2023/04/28 12:44:34;;;;;;;7.65;6.95;;;14.00;99.90;;;;;;5043663;28;20065;-79